sensor_id;sensor_type;location;lat;lon;timestamp;P1;durP1;ratioP1;P2;durP2;ratioP2
60494;SDS011;46342;49.046;11.920;2024-02-28T00:00:37;6.28;;;4.47;;
60494;SDS011;46342;49.046;11.920;2024-02-28T00:03:02;6.22;;;4.53;;
60494;SDS011;46342;49.046;11.920;2024-02-28T00:05:28;5.07;;;3.72;;
60494;SDS011;46342;49.046;11.920;2024-02-28T00:07:54;6.15;;;4.75;;
60494;SDS011;46342;49.046;11.920;2024-02-28T00:10:19;6.45;;;4.63;;
60494;SDS011;46342;49.046;11.920;2024-02-28T00:12:45;5.40;;;4.35;;
60494;SDS011;46342;49.046;11.920;2024-02-28T00:15:11;6.13;;;4.28;;
60494;SDS011;46342;49.046;11.920;2024-02-28T00:17:39;5.93;;;4.32;;
60494;SDS011;46342;49.046;11.920;2024-02-28T00:20:06;5.57;;;3.95;;
60494;SDS011;46342;49.046;11.920;2024-02-28T00:22:33;7.82;;;4.95;;
60494;SDS011;46342;49.046;11.920;2024-02-28T00:25:00;5.28;;;3.80;;
60494;SDS011;46342;49.046;11.920;2024-02-28T00:27:26;6.72;;;4.70;;
60494;SDS011;46342;49.046;11.920;2024-02-28T00:29:51;8.43;;;4.53;;
60494;SDS011;46342;49.046;11.920;2024-02-28T00:32:17;9.02;;;4.43;;
60494;SDS011;46342;49.046;11.920;2024-02-28T00:34:43;6.18;;;4.22;;
60494;SDS011;46342;49.046;11.920;2024-02-28T00:37:09;7.88;;;5.07;;
60494;SDS011;46342;49.046;11.920;2024-02-28T00:39:34;6.72;;;4.85;;
60494;SDS011;46342;49.046;11.920;2024-02-28T00:42:00;7.10;;;4.07;;
60494;SDS011;46342;49.046;11.920;2024-02-28T00:44:25;7.57;;;4.63;;
60494;SDS011;46342;49.046;11.920;2024-02-28T00:46:51;7.13;;;4.70;;
60494;SDS011;46342;49.046;11.920;2024-02-28T00:49:16;6.35;;;4.03;;
60494;SDS011;46342;49.046;11.920;2024-02-28T00:51:42;7.57;;;4.47;;
60494;SDS011;46342;49.046;11.920;2024-02-28T00:54:07;7.85;;;4.45;;
60494;SDS011;46342;49.046;11.920;2024-02-28T00:56:33;7.07;;;4.70;;
60494;SDS011;46342;49.046;11.920;2024-02-28T00:58:59;6.70;;;3.97;;
60494;SDS011;46342;49.046;11.920;2024-02-28T01:01:24;6.82;;;4.50;;
60494;SDS011;46342;49.046;11.920;2024-02-28T01:03:50;5.97;;;4.13;;
60494;SDS011;46342;49.046;11.920;2024-02-28T01:06:15;7.88;;;4.80;;
60494;SDS011;46342;49.046;11.920;2024-02-28T01:08:41;6.68;;;4.10;;
60494;SDS011;46342;49.046;11.920;2024-02-28T01:11:07;5.53;;;4.10;;
60494;SDS011;46342;49.046;11.920;2024-02-28T01:13:32;6.57;;;4.32;;
60494;SDS011;46342;49.046;11.920;2024-02-28T01:15:58;6.35;;;4.57;;
60494;SDS011;46342;49.046;11.920;2024-02-28T01:18:25;6.55;;;4.30;;
60494;SDS011;46342;49.046;11.920;2024-02-28T01:20:50;5.63;;;4.38;;
60494;SDS011;46342;49.046;11.920;2024-02-28T01:23:17;8.20;;;5.03;;
60494;SDS011;46342;49.046;11.920;2024-02-28T01:25:42;4.97;;;3.70;;
60494;SDS011;46342;49.046;11.920;2024-02-28T01:28:08;8.10;;;5.22;;
60494;SDS011;46342;49.046;11.920;2024-02-28T01:30:34;5.82;;;4.05;;
60494;SDS011;46342;49.046;11.920;2024-02-28T01:32:59;9.55;;;5.20;;
60494;SDS011;46342;49.046;11.920;2024-02-28T01:35:25;7.63;;;4.70;;
60494;SDS011;46342;49.046;11.920;2024-02-28T01:37:50;6.93;;;4.35;;
60494;SDS011;46342;49.046;11.920;2024-02-28T01:40:16;7.22;;;4.80;;
60494;SDS011;46342;49.046;11.920;2024-02-28T01:42:41;8.13;;;4.72;;
60494;SDS011;46342;49.046;11.920;2024-02-28T01:45:08;6.97;;;4.53;;
60494;SDS011;46342;49.046;11.920;2024-02-28T01:47:38;7.57;;;4.93;;
60494;SDS011;46342;49.046;11.920;2024-02-28T01:50:04;7.78;;;4.65;;
60494;SDS011;46342;49.046;11.920;2024-02-28T01:52:30;5.82;;;4.53;;
60494;SDS011;46342;49.046;11.920;2024-02-28T01:54:55;9.40;;;4.13;;
60494;SDS011;46342;49.046;11.920;2024-02-28T01:57:21;8.68;;;4.70;;
60494;SDS011;46342;49.046;11.920;2024-02-28T01:59:47;7.47;;;4.88;;
60494;SDS011;46342;49.046;11.920;2024-02-28T02:02:13;6.70;;;4.63;;
60494;SDS011;46342;49.046;11.920;2024-02-28T02:04:39;5.93;;;4.35;;
60494;SDS011;46342;49.046;11.920;2024-02-28T02:07:04;4.93;;;3.17;;
60494;SDS011;46342;49.046;11.920;2024-02-28T02:09:32;7.63;;;4.38;;
60494;SDS011;46342;49.046;11.920;2024-02-28T02:11:59;7.68;;;4.78;;
60494;SDS011;46342;49.046;11.920;2024-02-28T02:14:24;7.13;;;5.18;;
60494;SDS011;46342;49.046;11.920;2024-02-28T02:16:50;8.50;;;5.50;;
60494;SDS011;46342;49.046;11.920;2024-02-28T02:19:16;7.38;;;4.80;;
60494;SDS011;46342;49.046;11.920;2024-02-28T02:21:43;6.97;;;5.03;;
60494;SDS011;46342;49.046;11.920;2024-02-28T02:24:17;8.05;;;5.18;;
60494;SDS011;46342;49.046;11.920;2024-02-28T02:26:42;6.22;;;4.15;;
60494;SDS011;46342;49.046;11.920;2024-02-28T02:29:10;6.88;;;4.35;;
60494;SDS011;46342;49.046;11.920;2024-02-28T02:31:36;7.45;;;4.85;;
60494;SDS011;46342;49.046;11.920;2024-02-28T02:34:01;7.07;;;4.90;;
60494;SDS011;46342;49.046;11.920;2024-02-28T02:36:27;8.80;;;4.95;;
60494;SDS011;46342;49.046;11.920;2024-02-28T02:38:52;6.97;;;4.38;;
60494;SDS011;46342;49.046;11.920;2024-02-28T02:41:18;6.18;;;4.07;;
60494;SDS011;46342;49.046;11.920;2024-02-28T02:43:44;5.55;;;3.47;;
60494;SDS011;46342;49.046;11.920;2024-02-28T02:46:09;7.75;;;4.50;;
60494;SDS011;46342;49.046;11.920;2024-02-28T02:48:35;6.72;;;4.30;;
60494;SDS011;46342;49.046;11.920;2024-02-28T02:51:01;7.78;;;4.63;;
60494;SDS011;46342;49.046;11.920;2024-02-28T02:53:27;5.38;;;3.67;;
60494;SDS011;46342;49.046;11.920;2024-02-28T02:55:52;7.95;;;4.82;;
60494;SDS011;46342;49.046;11.920;2024-02-28T02:58:19;6.78;;;4.18;;
60494;SDS011;46342;49.046;11.920;2024-02-28T03:00:44;7.75;;;5.05;;
60494;SDS011;46342;49.046;11.920;2024-02-28T03:03:10;8.60;;;4.78;;
60494;SDS011;46342;49.046;11.920;2024-02-28T03:05:35;5.60;;;4.07;;
60494;SDS011;46342;49.046;11.920;2024-02-28T03:08:01;6.88;;;4.57;;
60494;SDS011;46342;49.046;11.920;2024-02-28T03:10:27;6.10;;;4.15;;
60494;SDS011;46342;49.046;11.920;2024-02-28T03:12:53;7.05;;;4.70;;
60494;SDS011;46342;49.046;11.920;2024-02-28T03:15:19;9.35;;;5.15;;
60494;SDS011;46342;49.046;11.920;2024-02-28T03:17:44;9.70;;;5.80;;
60494;SDS011;46342;49.046;11.920;2024-02-28T03:20:10;7.47;;;4.95;;
60494;SDS011;46342;49.046;11.920;2024-02-28T03:22:38;7.45;;;4.85;;
60494;SDS011;46342;49.046;11.920;2024-02-28T03:25:04;8.63;;;4.68;;
60494;SDS011;46342;49.046;11.920;2024-02-28T03:27:30;8.55;;;4.78;;
60494;SDS011;46342;49.046;11.920;2024-02-28T03:29:55;7.28;;;5.00;;
60494;SDS011;46342;49.046;11.920;2024-02-28T03:32:21;8.15;;;5.22;;
60494;SDS011;46342;49.046;11.920;2024-02-28T03:34:47;6.70;;;4.78;;
60494;SDS011;46342;49.046;11.920;2024-02-28T03:37:13;7.60;;;4.50;;
60494;SDS011;46342;49.046;11.920;2024-02-28T03:39:38;7.22;;;4.68;;
60494;SDS011;46342;49.046;11.920;2024-02-28T03:42:04;6.28;;;4.53;;
60494;SDS011;46342;49.046;11.920;2024-02-28T03:44:30;6.43;;;4.65;;
60494;SDS011;46342;49.046;11.920;2024-02-28T03:46:55;7.03;;;4.63;;
60494;SDS011;46342;49.046;11.920;2024-02-28T03:49:21;7.90;;;4.90;;
60494;SDS011;46342;49.046;11.920;2024-02-28T03:51:46;8.50;;;5.18;;
60494;SDS011;46342;49.046;11.920;2024-02-28T03:54:12;9.35;;;5.20;;
60494;SDS011;46342;49.046;11.920;2024-02-28T03:56:37;9.07;;;4.78;;
60494;SDS011;46342;49.046;11.920;2024-02-28T03:59:03;9.60;;;5.45;;
60494;SDS011;46342;49.046;11.920;2024-02-28T04:01:29;9.63;;;5.60;;
60494;SDS011;46342;49.046;11.920;2024-02-28T04:03:55;8.15;;;5.03;;
60494;SDS011;46342;49.046;11.920;2024-02-28T04:06:20;8.45;;;5.05;;
60494;SDS011;46342;49.046;11.920;2024-02-28T04:08:46;7.35;;;4.72;;
60494;SDS011;46342;49.046;11.920;2024-02-28T04:11:11;9.82;;;5.15;;
60494;SDS011;46342;49.046;11.920;2024-02-28T04:13:37;8.05;;;5.18;;
60494;SDS011;46342;49.046;11.920;2024-02-28T04:16:03;8.77;;;5.50;;
60494;SDS011;46342;49.046;11.920;2024-02-28T04:18:28;7.82;;;4.95;;
60494;SDS011;46342;49.046;11.920;2024-02-28T04:20:55;8.85;;;4.95;;
60494;SDS011;46342;49.046;11.920;2024-02-28T04:23:20;7.72;;;4.85;;
60494;SDS011;46342;49.046;11.920;2024-02-28T04:25:46;8.27;;;4.90;;
60494;SDS011;46342;49.046;11.920;2024-02-28T04:28:12;8.82;;;5.63;;
60494;SDS011;46342;49.046;11.920;2024-02-28T04:30:37;9.38;;;5.70;;
60494;SDS011;46342;49.046;11.920;2024-02-28T04:33:03;8.30;;;4.90;;
60494;SDS011;46342;49.046;11.920;2024-02-28T04:35:29;11.13;;;5.82;;
60494;SDS011;46342;49.046;11.920;2024-02-28T04:37:54;8.70;;;5.55;;
60494;SDS011;46342;49.046;11.920;2024-02-28T04:40:20;9.07;;;5.22;;
60494;SDS011;46342;49.046;11.920;2024-02-28T04:42:45;11.75;;;5.80;;
60494;SDS011;46342;49.046;11.920;2024-02-28T04:45:11;8.07;;;5.28;;
60494;SDS011;46342;49.046;11.920;2024-02-28T04:47:37;9.23;;;5.10;;
60494;SDS011;46342;49.046;11.920;2024-02-28T04:50:03;9.93;;;5.28;;
60494;SDS011;46342;49.046;11.920;2024-02-28T04:52:30;11.68;;;6.20;;
60494;SDS011;46342;49.046;11.920;2024-02-28T04:54:56;7.82;;;5.13;;
60494;SDS011;46342;49.046;11.920;2024-02-28T04:57:21;8.45;;;5.57;;
60494;SDS011;46342;49.046;11.920;2024-02-28T04:59:47;9.43;;;6.10;;
60494;SDS011;46342;49.046;11.920;2024-02-28T05:02:13;9.43;;;5.50;;
60494;SDS011;46342;49.046;11.920;2024-02-28T05:04:38;8.50;;;5.68;;
60494;SDS011;46342;49.046;11.920;2024-02-28T05:07:04;8.75;;;5.05;;
60494;SDS011;46342;49.046;11.920;2024-02-28T05:09:32;9.02;;;6.03;;
60494;SDS011;46342;49.046;11.920;2024-02-28T05:11:58;8.70;;;5.60;;
60494;SDS011;46342;49.046;11.920;2024-02-28T05:14:23;8.30;;;5.50;;
60494;SDS011;46342;49.046;11.920;2024-02-28T05:16:49;7.25;;;5.10;;
60494;SDS011;46342;49.046;11.920;2024-02-28T05:19:15;8.88;;;5.13;;
60494;SDS011;46342;49.046;11.920;2024-02-28T05:24:09;7.60;;;4.30;;
60494;SDS011;46342;49.046;11.920;2024-02-28T05:26:35;10.27;;;5.70;;
60494;SDS011;46342;49.046;11.920;2024-02-28T05:29:01;7.82;;;4.93;;
60494;SDS011;46342;49.046;11.920;2024-02-28T05:31:28;9.00;;;5.70;;
60494;SDS011;46342;49.046;11.920;2024-02-28T05:33:54;8.43;;;4.80;;
60494;SDS011;46342;49.046;11.920;2024-02-28T05:36:21;9.02;;;5.50;;
60494;SDS011;46342;49.046;11.920;2024-02-28T05:38:48;10.48;;;6.05;;
60494;SDS011;46342;49.046;11.920;2024-02-28T05:41:15;9.88;;;5.82;;
60494;SDS011;46342;49.046;11.920;2024-02-28T05:43:42;8.98;;;5.68;;
60494;SDS011;46342;49.046;11.920;2024-02-28T05:46:08;8.20;;;5.18;;
60494;SDS011;46342;49.046;11.920;2024-02-28T05:48:33;8.95;;;5.63;;
60494;SDS011;46342;49.046;11.920;2024-02-28T05:51:00;8.93;;;5.18;;
60494;SDS011;46342;49.046;11.920;2024-02-28T05:53:27;8.20;;;5.55;;
60494;SDS011;46342;49.046;11.920;2024-02-28T05:55:53;12.07;;;6.05;;
60494;SDS011;46342;49.046;11.920;2024-02-28T05:58:19;8.80;;;5.82;;
60494;SDS011;46342;49.046;11.920;2024-02-28T06:00:44;7.47;;;5.22;;
60494;SDS011;46342;49.046;11.920;2024-02-28T06:03:10;9.20;;;5.53;;
60494;SDS011;46342;49.046;11.920;2024-02-28T06:05:35;8.98;;;5.55;;
60494;SDS011;46342;49.046;11.920;2024-02-28T06:08:01;7.93;;;4.88;;
60494;SDS011;46342;49.046;11.920;2024-02-28T06:10:27;6.63;;;4.60;;
60494;SDS011;46342;49.046;11.920;2024-02-28T06:12:53;6.80;;;4.10;;
60494;SDS011;46342;49.046;11.920;2024-02-28T06:15:19;8.32;;;4.47;;
60494;SDS011;46342;49.046;11.920;2024-02-28T06:17:44;8.70;;;4.95;;
60494;SDS011;46342;49.046;11.920;2024-02-28T06:20:10;9.73;;;5.28;;
60494;SDS011;46342;49.046;11.920;2024-02-28T06:22:36;7.60;;;4.70;;
60494;SDS011;46342;49.046;11.920;2024-02-28T06:25:01;7.68;;;4.90;;
60494;SDS011;46342;49.046;11.920;2024-02-28T06:27:27;7.38;;;4.57;;
60494;SDS011;46342;49.046;11.920;2024-02-28T06:29:52;7.43;;;4.72;;
60494;SDS011;46342;49.046;11.920;2024-02-28T06:32:18;5.72;;;3.90;;
60494;SDS011;46342;49.046;11.920;2024-02-28T06:34:43;8.38;;;5.13;;
60494;SDS011;46342;49.046;11.920;2024-02-28T06:37:09;8.30;;;4.97;;
60494;SDS011;46342;49.046;11.920;2024-02-28T06:39:35;9.38;;;5.03;;
60494;SDS011;46342;49.046;11.920;2024-02-28T06:42:00;7.55;;;4.53;;
60494;SDS011;46342;49.046;11.920;2024-02-28T06:44:26;8.38;;;4.68;;
60494;SDS011;46342;49.046;11.920;2024-02-28T06:46:51;5.97;;;4.38;;
60494;SDS011;46342;49.046;11.920;2024-02-28T06:49:17;6.25;;;4.22;;
60494;SDS011;46342;49.046;11.920;2024-02-28T06:51:45;8.43;;;4.47;;
60494;SDS011;46342;49.046;11.920;2024-02-28T06:54:11;5.50;;;4.18;;
60494;SDS011;46342;49.046;11.920;2024-02-28T06:56:37;6.95;;;4.40;;
60494;SDS011;46342;49.046;11.920;2024-02-28T06:59:02;7.47;;;4.43;;
60494;SDS011;46342;49.046;11.920;2024-02-28T07:01:29;6.05;;;4.05;;
60494;SDS011;46342;49.046;11.920;2024-02-28T07:03:55;8.30;;;4.93;;
60494;SDS011;46342;49.046;11.920;2024-02-28T07:06:21;6.82;;;4.10;;
60494;SDS011;46342;49.046;11.920;2024-02-28T07:08:46;7.22;;;4.05;;
60494;SDS011;46342;49.046;11.920;2024-02-28T07:11:15;9.52;;;4.85;;
60494;SDS011;46342;49.046;11.920;2024-02-28T07:13:41;7.50;;;4.47;;
60494;SDS011;46342;49.046;11.920;2024-02-28T07:16:07;6.00;;;4.00;;
60494;SDS011;46342;49.046;11.920;2024-02-28T07:18:33;8.45;;;4.72;;
60494;SDS011;46342;49.046;11.920;2024-02-28T07:20:58;6.78;;;4.85;;
60494;SDS011;46342;49.046;11.920;2024-02-28T07:23:25;6.43;;;4.10;;
60494;SDS011;46342;49.046;11.920;2024-02-28T07:25:51;8.23;;;4.53;;
60494;SDS011;46342;49.046;11.920;2024-02-28T07:28:16;6.13;;;4.07;;
60494;SDS011;46342;49.046;11.920;2024-02-28T07:30:42;7.18;;;4.75;;
60494;SDS011;46342;49.046;11.920;2024-02-28T07:33:09;7.30;;;4.15;;
60494;SDS011;46342;49.046;11.920;2024-02-28T07:35:45;7.10;;;4.65;;
60494;SDS011;46342;49.046;11.920;2024-02-28T07:38:11;8.82;;;4.88;;
60494;SDS011;46342;49.046;11.920;2024-02-28T07:40:37;8.73;;;4.75;;
60494;SDS011;46342;49.046;11.920;2024-02-28T07:43:03;8.45;;;5.00;;
60494;SDS011;46342;49.046;11.920;2024-02-28T07:45:29;8.73;;;5.63;;
60494;SDS011;46342;49.046;11.920;2024-02-28T07:47:54;9.80;;;5.43;;
60494;SDS011;46342;49.046;11.920;2024-02-28T07:50:20;7.30;;;4.70;;
60494;SDS011;46342;49.046;11.920;2024-02-28T07:52:45;6.22;;;4.00;;
60494;SDS011;46342;49.046;11.920;2024-02-28T07:55:11;7.35;;;4.80;;
60494;SDS011;46342;49.046;11.920;2024-02-28T07:57:37;8.20;;;4.97;;
60494;SDS011;46342;49.046;11.920;2024-02-28T08:00:03;6.80;;;4.25;;
60494;SDS011;46342;49.046;11.920;2024-02-28T08:02:29;6.15;;;4.20;;
60494;SDS011;46342;49.046;11.920;2024-02-28T08:04:54;6.28;;;4.47;;
60494;SDS011;46342;49.046;11.920;2024-02-28T08:07:20;6.22;;;4.10;;
60494;SDS011;46342;49.046;11.920;2024-02-28T08:09:46;7.13;;;4.80;;
60494;SDS011;46342;49.046;11.920;2024-02-28T08:12:12;8.60;;;4.88;;
60494;SDS011;46342;49.046;11.920;2024-02-28T08:14:37;9.23;;;5.13;;
60494;SDS011;46342;49.046;11.920;2024-02-28T08:17:03;9.00;;;5.78;;
60494;SDS011;46342;49.046;11.920;2024-02-28T08:19:29;8.68;;;5.25;;
60494;SDS011;46342;49.046;11.920;2024-02-28T08:21:55;7.70;;;5.10;;
60494;SDS011;46342;49.046;11.920;2024-02-28T08:24:20;7.30;;;4.75;;
60494;SDS011;46342;49.046;11.920;2024-02-28T08:26:46;7.97;;;5.03;;
60494;SDS011;46342;49.046;11.920;2024-02-28T08:29:11;8.18;;;5.22;;
60494;SDS011;46342;49.046;11.920;2024-02-28T08:31:43;7.60;;;4.95;;
60494;SDS011;46342;49.046;11.920;2024-02-28T08:34:09;7.18;;;4.75;;
60494;SDS011;46342;49.046;11.920;2024-02-28T08:36:35;8.82;;;5.13;;
60494;SDS011;46342;49.046;11.920;2024-02-28T08:39:01;7.45;;;5.10;;
60494;SDS011;46342;49.046;11.920;2024-02-28T08:41:29;8.15;;;4.68;;
60494;SDS011;46342;49.046;11.920;2024-02-28T08:43:56;8.93;;;4.65;;
60494;SDS011;46342;49.046;11.920;2024-02-28T08:46:22;8.55;;;4.93;;
60494;SDS011;46342;49.046;11.920;2024-02-28T08:48:47;10.02;;;5.78;;
60494;SDS011;46342;49.046;11.920;2024-02-28T08:51:13;7.50;;;4.82;;
60494;SDS011;46342;49.046;11.920;2024-02-28T08:53:38;8.50;;;5.15;;
60494;SDS011;46342;49.046;11.920;2024-02-28T08:56:04;9.20;;;5.85;;
60494;SDS011;46342;49.046;11.920;2024-02-28T08:58:30;10.23;;;5.45;;
60494;SDS011;46342;49.046;11.920;2024-02-28T09:00:56;10.82;;;6.13;;
60494;SDS011;46342;49.046;11.920;2024-02-28T09:03:21;11.35;;;6.03;;
60494;SDS011;46342;49.046;11.920;2024-02-28T09:05:47;9.45;;;5.13;;
60494;SDS011;46342;49.046;11.920;2024-02-28T09:08:13;9.30;;;5.53;;
60494;SDS011;46342;49.046;11.920;2024-02-28T09:10:39;9.77;;;6.40;;
60494;SDS011;46342;49.046;11.920;2024-02-28T09:13:04;10.00;;;5.47;;
60494;SDS011;46342;49.046;11.920;2024-02-28T09:15:31;7.30;;;4.82;;
60494;SDS011;46342;49.046;11.920;2024-02-28T09:17:58;7.80;;;4.75;;
60494;SDS011;46342;49.046;11.920;2024-02-28T09:20:23;8.63;;;5.80;;
60494;SDS011;46342;49.046;11.920;2024-02-28T09:22:49;10.60;;;5.53;;
60494;SDS011;46342;49.046;11.920;2024-02-28T09:25:15;8.38;;;5.43;;
60494;SDS011;46342;49.046;11.920;2024-02-28T09:27:43;9.55;;;5.80;;
60494;SDS011;46342;49.046;11.920;2024-02-28T09:30:09;9.15;;;5.50;;
60494;SDS011;46342;49.046;11.920;2024-02-28T09:32:35;10.50;;;6.05;;
60494;SDS011;46342;49.046;11.920;2024-02-28T09:35:02;9.20;;;6.05;;
60494;SDS011;46342;49.046;11.920;2024-02-28T09:37:29;12.43;;;6.55;;
60494;SDS011;46342;49.046;11.920;2024-02-28T09:39:54;8.25;;;4.80;;
60494;SDS011;46342;49.046;11.920;2024-02-28T09:42:20;10.32;;;5.35;;
60494;SDS011;46342;49.046;11.920;2024-02-28T09:44:46;11.15;;;5.55;;
60494;SDS011;46342;49.046;11.920;2024-02-28T09:47:11;9.55;;;5.22;;
60494;SDS011;46342;49.046;11.920;2024-02-28T09:49:38;12.10;;;6.55;;
60494;SDS011;46342;49.046;11.920;2024-02-28T09:52:04;11.23;;;6.28;;
60494;SDS011;46342;49.046;11.920;2024-02-28T09:54:30;11.85;;;6.65;;
60494;SDS011;46342;49.046;11.920;2024-02-28T09:56:55;11.57;;;6.45;;
60494;SDS011;46342;49.046;11.920;2024-02-28T09:59:21;11.30;;;6.30;;
60494;SDS011;46342;49.046;11.920;2024-02-28T10:01:58;11.15;;;6.43;;
60494;SDS011;46342;49.046;11.920;2024-02-28T10:04:26;9.55;;;5.70;;
60494;SDS011;46342;49.046;11.920;2024-02-28T10:06:55;10.75;;;6.07;;
60494;SDS011;46342;49.046;11.920;2024-02-28T10:09:21;10.05;;;5.75;;
60494;SDS011;46342;49.046;11.920;2024-02-28T10:11:47;12.48;;;7.38;;
60494;SDS011;46342;49.046;11.920;2024-02-28T10:14:16;12.75;;;7.13;;
60494;SDS011;46342;49.046;11.920;2024-02-28T10:16:45;10.65;;;6.80;;
60494;SDS011;46342;49.046;11.920;2024-02-28T10:19:10;11.88;;;6.65;;
60494;SDS011;46342;49.046;11.920;2024-02-28T10:21:36;13.35;;;7.32;;
60494;SDS011;46342;49.046;11.920;2024-02-28T10:24:02;11.27;;;6.20;;
60494;SDS011;46342;49.046;11.920;2024-02-28T10:26:28;15.38;;;7.38;;
60494;SDS011;46342;49.046;11.920;2024-02-28T10:28:56;13.32;;;6.95;;
60494;SDS011;46342;49.046;11.920;2024-02-28T10:31:22;9.65;;;5.78;;
60494;SDS011;46342;49.046;11.920;2024-02-28T10:33:47;11.25;;;6.28;;
60494;SDS011;46342;49.046;11.920;2024-02-28T10:36:13;9.90;;;5.78;;
60494;SDS011;46342;49.046;11.920;2024-02-28T10:38:39;12.23;;;6.25;;
60494;SDS011;46342;49.046;11.920;2024-02-28T10:41:05;12.75;;;6.50;;
60494;SDS011;46342;49.046;11.920;2024-02-28T10:43:30;11.65;;;7.03;;
60494;SDS011;46342;49.046;11.920;2024-02-28T10:45:59;8.75;;;5.55;;
60494;SDS011;46342;49.046;11.920;2024-02-28T10:48:26;10.48;;;6.22;;
60494;SDS011;46342;49.046;11.920;2024-02-28T10:50:52;11.38;;;6.03;;
60494;SDS011;46342;49.046;11.920;2024-02-28T10:53:22;10.82;;;5.72;;
60494;SDS011;46342;49.046;11.920;2024-02-28T10:55:51;10.60;;;5.75;;
60494;SDS011;46342;49.046;11.920;2024-02-28T10:58:23;9.20;;;5.45;;
60494;SDS011;46342;49.046;11.920;2024-02-28T11:00:51;13.77;;;6.60;;
60494;SDS011;46342;49.046;11.920;2024-02-28T11:03:17;11.75;;;6.30;;
60494;SDS011;46342;49.046;11.920;2024-02-28T11:05:44;9.55;;;6.32;;
60494;SDS011;46342;49.046;11.920;2024-02-28T11:08:23;10.32;;;6.35;;
60494;SDS011;46342;49.046;11.920;2024-02-28T11:10:56;10.32;;;5.88;;
60494;SDS011;46342;49.046;11.920;2024-02-28T11:13:23;10.82;;;6.05;;
60494;SDS011;46342;49.046;11.920;2024-02-28T11:15:49;10.35;;;5.82;;
60494;SDS011;46342;49.046;11.920;2024-02-28T11:18:15;8.68;;;5.47;;
60494;SDS011;46342;49.046;11.920;2024-02-28T11:20:41;10.55;;;6.28;;
60494;SDS011;46342;49.046;11.920;2024-02-28T11:23:09;11.40;;;5.90;;
60494;SDS011;46342;49.046;11.920;2024-02-28T11:25:35;9.52;;;5.50;;
60494;SDS011;46342;49.046;11.920;2024-02-28T11:28:01;9.55;;;5.55;;
60494;SDS011;46342;49.046;11.920;2024-02-28T11:30:26;8.77;;;5.28;;
60494;SDS011;46342;49.046;11.920;2024-02-28T11:32:53;10.00;;;5.85;;
60494;SDS011;46342;49.046;11.920;2024-02-28T11:35:19;10.85;;;5.65;;
60494;SDS011;46342;49.046;11.920;2024-02-28T11:37:45;9.70;;;5.32;;
60494;SDS011;46342;49.046;11.920;2024-02-28T11:40:14;11.82;;;6.05;;
60494;SDS011;46342;49.046;11.920;2024-02-28T11:42:40;8.20;;;4.88;;
60494;SDS011;46342;49.046;11.920;2024-02-28T11:45:05;7.32;;;4.45;;
60494;SDS011;46342;49.046;11.920;2024-02-28T11:47:34;9.88;;;5.20;;
60494;SDS011;46342;49.046;11.920;2024-02-28T11:50:03;8.35;;;5.30;;
60494;SDS011;46342;49.046;11.920;2024-02-28T11:52:35;7.75;;;4.57;;
60494;SDS011;46342;49.046;11.920;2024-02-28T11:55:02;5.80;;;4.13;;
60494;SDS011;46342;49.046;11.920;2024-02-28T11:57:28;8.10;;;4.40;;
60494;SDS011;46342;49.046;11.920;2024-02-28T11:59:55;8.52;;;4.72;;
60494;SDS011;46342;49.046;11.920;2024-02-28T12:02:22;9.75;;;5.32;;
60494;SDS011;46342;49.046;11.920;2024-02-28T12:04:50;8.63;;;5.53;;
60494;SDS011;46342;49.046;11.920;2024-02-28T12:07:17;10.43;;;5.80;;
60494;SDS011;46342;49.046;11.920;2024-02-28T12:09:43;7.25;;;5.03;;
60494;SDS011;46342;49.046;11.920;2024-02-28T12:12:09;8.50;;;5.18;;
60494;SDS011;46342;49.046;11.920;2024-02-28T12:14:36;8.43;;;5.80;;
60494;SDS011;46342;49.046;11.920;2024-02-28T12:17:03;8.43;;;5.05;;
60494;SDS011;46342;49.046;11.920;2024-02-28T12:19:29;10.73;;;4.95;;
60494;SDS011;46342;49.046;11.920;2024-02-28T12:21:55;7.72;;;4.90;;
60494;SDS011;46342;49.046;11.920;2024-02-28T12:24:21;10.82;;;5.45;;
60494;SDS011;46342;49.046;11.920;2024-02-28T12:26:47;7.20;;;4.72;;
60494;SDS011;46342;49.046;11.920;2024-02-28T12:29:12;9.02;;;4.65;;
60494;SDS011;46342;49.046;11.920;2024-02-28T12:31:39;10.25;;;4.95;;
60494;SDS011;46342;49.046;11.920;2024-02-28T12:34:05;7.00;;;4.63;;
60494;SDS011;46342;49.046;11.920;2024-02-28T12:36:30;8.23;;;4.97;;
60494;SDS011;46342;49.046;11.920;2024-02-28T12:38:57;8.48;;;4.95;;
60494;SDS011;46342;49.046;11.920;2024-02-28T12:41:24;8.55;;;5.07;;
60494;SDS011;46342;49.046;11.920;2024-02-28T12:43:51;7.73;;;4.80;;
60494;SDS011;46342;49.046;11.920;2024-02-28T12:46:17;9.68;;;5.75;;
60494;SDS011;46342;49.046;11.920;2024-02-28T12:48:43;9.00;;;5.47;;
60494;SDS011;46342;49.046;11.920;2024-02-28T12:51:10;9.30;;;5.40;;
60494;SDS011;46342;49.046;11.920;2024-02-28T12:53:45;9.88;;;5.75;;
60494;SDS011;46342;49.046;11.920;2024-02-28T12:56:11;9.80;;;5.65;;
60494;SDS011;46342;49.046;11.920;2024-02-28T12:58:36;8.45;;;5.60;;
60494;SDS011;46342;49.046;11.920;2024-02-28T13:01:02;9.73;;;5.22;;
60494;SDS011;46342;49.046;11.920;2024-02-28T13:03:29;7.13;;;4.97;;
60494;SDS011;46342;49.046;11.920;2024-02-28T13:05:55;8.35;;;4.65;;
60494;SDS011;46342;49.046;11.920;2024-02-28T13:08:21;7.78;;;5.03;;
60494;SDS011;46342;49.046;11.920;2024-02-28T13:10:46;6.95;;;5.22;;
60494;SDS011;46342;49.046;11.920;2024-02-28T13:13:12;7.75;;;4.55;;
60494;SDS011;46342;49.046;11.920;2024-02-28T13:15:39;6.20;;;4.65;;
60494;SDS011;46342;49.046;11.920;2024-02-28T13:18:06;8.07;;;4.80;;
60494;SDS011;46342;49.046;11.920;2024-02-28T13:23:00;7.28;;;3.63;;
60494;SDS011;46342;49.046;11.920;2024-02-28T13:25:25;7.57;;;4.22;;
60494;SDS011;46342;49.046;11.920;2024-02-28T13:27:51;7.25;;;4.60;;
60494;SDS011;46342;49.046;11.920;2024-02-28T13:30:17;8.02;;;5.03;;
60494;SDS011;46342;49.046;11.920;2024-02-28T13:32:42;7.15;;;4.82;;
60494;SDS011;46342;49.046;11.920;2024-02-28T13:35:08;6.78;;;4.47;;
60494;SDS011;46342;49.046;11.920;2024-02-28T13:37:35;7.03;;;4.47;;
60494;SDS011;46342;49.046;11.920;2024-02-28T13:40:02;7.07;;;4.93;;
60494;SDS011;46342;49.046;11.920;2024-02-28T13:42:29;7.90;;;4.57;;
60494;SDS011;46342;49.046;11.920;2024-02-28T13:44:55;6.55;;;4.20;;
60494;SDS011;46342;49.046;11.920;2024-02-28T13:47:20;6.80;;;4.28;;
60494;SDS011;46342;49.046;11.920;2024-02-28T13:49:46;8.23;;;4.72;;
60494;SDS011;46342;49.046;11.920;2024-02-28T13:52:12;9.45;;;4.50;;
60494;SDS011;46342;49.046;11.920;2024-02-28T13:54:38;7.70;;;4.90;;
60494;SDS011;46342;49.046;11.920;2024-02-28T13:57:03;7.03;;;4.93;;
60494;SDS011;46342;49.046;11.920;2024-02-28T13:59:30;6.40;;;4.50;;
60494;SDS011;46342;49.046;11.920;2024-02-28T14:01:55;5.90;;;4.20;;
60494;SDS011;46342;49.046;11.920;2024-02-28T14:04:21;6.97;;;4.38;;
60494;SDS011;46342;49.046;11.920;2024-02-28T14:06:47;6.97;;;4.32;;
60494;SDS011;46342;49.046;11.920;2024-02-28T14:09:14;8.43;;;4.63;;
60494;SDS011;46342;49.046;11.920;2024-02-28T14:11:40;7.25;;;4.70;;
60494;SDS011;46342;49.046;11.920;2024-02-28T14:14:05;9.25;;;4.93;;
60494;SDS011;46342;49.046;11.920;2024-02-28T14:16:32;5.95;;;4.15;;
60494;SDS011;46342;49.046;11.920;2024-02-28T14:18:57;8.95;;;4.18;;
60494;SDS011;46342;49.046;11.920;2024-02-28T14:21:23;5.53;;;3.75;;
60494;SDS011;46342;49.046;11.920;2024-02-28T14:23:49;6.53;;;4.47;;
60494;SDS011;46342;49.046;11.920;2024-02-28T14:26:15;7.70;;;5.00;;
60494;SDS011;46342;49.046;11.920;2024-02-28T14:28:41;7.07;;;4.18;;
60494;SDS011;46342;49.046;11.920;2024-02-28T14:31:07;5.50;;;3.78;;